Time;durP1;ratioP1;P1;durP2;ratioP2;P2;SDS_P1;SDS_P2;PMS_P1;PMS_P2;Temp;Humidity;BMP_temperature;BMP_pressure;BME280_temperature;BME280_humidity;BME280_pressure;Samples;Min_cycle;Max_cycle;Signal;HPM_P1;HPM_P2
2021/07/16 00:01:23;;;;;;;12.15;5.75;;;;;;;13.93;81.64;100688.91;4948611;28;20062;-73
2021/07/16 00:03:48;;;;;;;14.70;6.05;;;;;;;13.95;81.38;100680.50;4943324;28;20036;-73
2021/07/16 00:06:14;;;;;;;16.45;8.18;;;;;;;13.88;81.36;100676.06;4937999;28;20045;-73
2021/07/16 00:08:40;;;;;;;40.03;24.98;;;;;;;13.70;82.66;100681.66;4933396;28;20043;-74
2021/07/16 00:11:05;;;;;;;26.52;12.90;;;;;;;13.67;82.02;100674.88;4940233;28;20040;-73
2021/07/16 00:13:31;;;;;;;13.27;6.15;;;;;;;13.62;82.12;100688.28;4937845;28;20045;-73
2021/07/16 00:15:56;;;;;;;12.23;5.57;;;;;;;13.62;81.83;100682.88;4947300;28;21554;-73
2021/07/16 00:18:22;;;;;;;11.15;5.40;;;;;;;13.69;82.70;100682.72;4951260;28;20035;-73
2021/07/16 00:20:48;;;;;;;13.13;4.80;;;;;;;13.68;81.82;100687.34;4944695;28;20500;-73
2021/07/16 00:23:14;;;;;;;16.10;4.97;;;;;;;13.57;82.01;100671.94;4953728;28;20147;-73
2021/07/16 00:25:40;;;;;;;16.88;4.85;;;;;;;13.60;82.58;100676.88;4958625;28;20026;-73
2021/07/16 00:28:09;;;;;;;11.90;5.45;;;;;;;13.59;83.24;100688.78;4953567;28;20106;-73
2021/07/16 00:30:36;;;;;;;11.75;5.55;;;;;;;13.57;83.26;100683.59;4949562;28;20066;-72
2021/07/16 00:33:02;;;;;;;12.57;4.93;;;;;;;13.53;82.07;100687.03;4954268;28;20030;-74
2021/07/16 00:35:28;;;;;;;9.48;4.78;;;;;;;13.40;82.70;100674.53;4952874;28;20389;-73
2021/07/16 00:37:55;;;;;;;13.85;5.47;;;;;;;13.40;83.18;100679.94;4937071;28;20027;-73
2021/07/16 00:40:21;;;;;;;15.18;6.45;;;;;;;13.41;82.96;100676.19;4949659;28;20456;-73
2021/07/16 00:42:47;;;;;;;34.20;9.55;;;;;;;13.40;83.84;100674.53;4961005;28;20408;-73
2021/07/16 00:45:14;;;;;;;23.15;7.72;;;;;;;13.39;83.59;100679.16;4963529;28;20504;-73
2021/07/16 00:47:45;;;;;;;23.00;7.55;;;;;;;13.37;82.99;100680.44;4954078;28;20020;-72
2021/07/16 00:50:14;;;;;;;25.63;8.55;;;;;;;13.35;82.76;100671.72;4961159;28;20075;-73
2021/07/16 00:52:40;;;;;;;34.53;8.45;;;;;;;13.33;83.48;100674.69;4951182;28;20401;-72
2021/07/16 00:55:07;;;;;;;22.77;8.48;;;;;;;13.23;83.59;100672.56;4945036;28;20855;-72
2021/07/16 00:57:33;;;;;;;27.00;7.82;;;;;;;13.30;83.05;100675.16;4956090;28;20055;-73
2021/07/16 00:59:59;;;;;;;24.33;7.93;;;;;;;13.12;84.34;100679.63;4944608;28;20067;-72
2021/07/16 01:02:25;;;;;;;15.23;5.05;;;;;;;13.12;83.01;100684.22;4945354;28;20051;-73
2021/07/16 01:04:51;;;;;;;16.40;5.35;;;;;;;13.09;82.91;100684.69;4961233;28;20508;-72
2021/07/16 01:07:17;;;;;;;10.80;4.57;;;;;;;13.07;82.33;100681.41;4951663;28;20536;-72
2021/07/16 01:09:42;;;;;;;18.48;6.05;;;;;;;13.10;83.40;100676.34;4961417;28;20484;-72
2021/07/16 01:12:09;;;;;;;17.60;5.93;;;;;;;13.11;84.03;100677.16;4948525;28;20119;-73
2021/07/16 01:14:34;;;;;;;16.20;5.25;;;;;;;13.05;82.96;100673.50;4946964;28;20035;-72
2021/07/16 01:17:00;;;;;;;13.32;5.40;;;;;;;13.06;83.54;100680.56;4950656;28;20070;-73
2021/07/16 01:19:40;;;;;;;14.38;5.78;;;;;;;13.03;83.47;100673.75;4948122;28;20061;-71
2021/07/16 01:22:08;;;;;;;11.20;4.93;;;;;;;13.04;84.14;100674.56;4599746;28;10001199;-72
2021/07/16 01:24:34;;;;;;;16.85;5.25;;;;;;;13.00;84.40;100673.41;4946288;28;20493;-72
2021/07/16 01:27:00;;;;;;;14.27;4.65;;;;;;;12.98;83.25;100670.94;4949089;28;20039;-73
2021/07/16 01:29:26;;;;;;;21.45;5.30;;;;;;;12.97;84.71;100676.56;4947316;28;20031;-72
2021/07/16 01:31:52;;;;;;;14.32;4.80;;;;;;;13.00;84.25;100685.06;4954008;28;20039;-72
2021/07/16 01:34:18;;;;;;;11.40;4.90;;;;;;;12.86;84.34;100683.66;4950083;28;20038;-72
2021/07/16 01:36:44;;;;;;;16.63;5.63;;;;;;;12.77;84.59;100668.84;4945269;28;20026;-72
2021/07/16 01:39:10;;;;;;;13.80;4.78;;;;;;;12.76;84.59;100670.69;4937060;29;20043;-72
2021/07/16 01:41:36;;;;;;;14.00;4.57;;;;;;;12.81;84.25;100672.72;4947089;28;20044;-72
2021/07/16 01:44:04;;;;;;;18.08;5.18;;;;;;;12.75;84.17;100674.47;4958995;28;20039;-72
2021/07/16 01:46:29;;;;;;;17.20;5.15;;;;;;;12.74;85.13;100679.06;4954869;28;20035;-72
2021/07/16 01:48:55;;;;;;;17.20;5.28;;;;;;;12.76;85.21;100683.41;4950552;28;20042;-72
2021/07/16 01:51:21;;;;;;;15.40;4.95;;;;;;;12.68;85.07;100682.69;4946399;28;20047;-73
2021/07/16 01:53:46;;;;;;;14.18;5.57;;;;;;;12.68;85.17;100676.44;4950819;28;20035;-72
2021/07/16 01:56:12;;;;;;;15.57;5.80;;;;;;;12.54;85.69;100681.25;4936588;29;20043;-73
2021/07/16 01:58:38;;;;;;;10.73;4.97;;;;;;;12.58;85.45;100685.16;4948135;28;20126;-72
2021/07/16 02:01:05;;;;;;;16.77;5.63;;;;;;;12.66;85.93;100673.16;4952508;28;20122;-72
2021/07/16 02:03:31;;;;;;;14.88;5.25;;;;;;;12.63;85.45;100681.72;4948869;28;20038;-72
2021/07/16 02:05:57;;;;;;;11.45;5.28;;;;;;;12.55;85.76;100672.09;4952727;28;20047;-72
2021/07/16 02:08:24;;;;;;;18.45;5.65;;;;;;;12.67;85.83;100675.63;4942840;28;20037;-72
2021/07/16 02:10:55;;;;;;;14.02;5.13;;;;;;;12.63;85.07;100670.91;4946851;28;20039;-72
2021/07/16 02:13:22;;;;;;;11.05;4.68;;;;;;;12.59;86.24;100676.78;4941369;28;20055;-72
2021/07/16 02:15:49;;;;;;;13.43;5.10;;;;;;;12.67;85.84;100674.81;4950395;28;20043;-72
2021/07/16 02:18:16;;;;;;;13.38;4.80;;;;;;;12.62;85.37;100672.81;4950082;28;20027;-72
2021/07/16 02:20:42;;;;;;;10.68;4.97;;;;;;;12.56;86.14;100673.75;4950553;28;20118;-72
2021/07/16 02:23:12;;;;;;;9.18;4.53;;;;;;;12.53;85.75;100672.31;4947655;28;20453;-72
2021/07/16 02:25:38;;;;;;;11.48;5.20;;;;;;;12.48;85.59;100671.38;4951296;28;20043;-72
2021/07/16 02:28:11;;;;;;;10.13;5.15;;;;;;;12.40;85.91;100675.22;4949346;28;20047;-72
2021/07/16 02:30:37;;;;;;;14.43;4.90;;;;;;;12.38;85.79;100671.94;4951436;28;20035;-72
2021/07/16 02:33:03;;;;;;;11.57;4.97;;;;;;;12.42;86.67;100663.16;4946514;28;20527;-72
2021/07/16 02:35:30;;;;;;;13.88;5.18;;;;;;;12.46;87.00;100666.19;4952240;28;20035;-72
2021/07/16 02:37:57;;;;;;;11.20;4.80;;;;;;;12.44;86.08;100662.91;4948910;28;20118;-72
2021/07/16 02:40:23;;;;;;;14.20;4.95;;;;;;;12.38;86.58;100669.25;4961097;28;20106;-72
2021/07/16 02:42:48;;;;;;;9.75;4.60;;;;;;;12.37;86.88;100667.59;4952405;28;20532;-72
2021/07/16 02:45:17;;;;;;;9.07;4.75;;;;;;;12.32;86.50;100660.16;4948155;28;20445;-73
2021/07/16 02:47:43;;;;;;;11.35;4.93;;;;;;;12.24;86.29;100669.44;4950219;28;20145;-72
2021/07/16 02:50:16;;;;;;;16.02;4.57;;;;;;;12.26;86.99;100667.34;4947340;28;20556;-72
2021/07/16 02:52:42;;;;;;;8.32;4.38;;;;;;;12.27;86.52;100673.53;4950534;28;20110;-72
2021/07/16 02:55:09;;;;;;;13.35;5.03;;;;;;;12.16;86.52;100667.06;4946977;28;20039;-73
2021/07/16 02:57:35;;;;;;;10.30;4.55;;;;;;;12.14;86.93;100664.59;4950136;28;20038;-74
2021/07/16 03:00:01;;;;;;;12.88;5.07;;;;;;;12.23;87.09;100661.56;4946307;28;20428;-73
2021/07/16 03:02:30;;;;;;;12.43;4.43;;;;;;;12.21;86.87;100667.19;4957921;28;20518;-72
2021/07/16 03:04:56;;;;;;;12.77;4.97;;;;;;;12.21;87.21;100666.38;4945550;28;20031;-72
2021/07/16 03:07:22;;;;;;;11.32;4.78;;;;;;;12.14;86.99;100670.00;4937779;28;20038;-72
2021/07/16 03:09:48;;;;;;;11.38;4.13;;;;;;;12.06;87.23;100667.63;4958123;28;20498;-72
2021/07/16 03:12:14;;;;;;;10.38;4.88;;;;;;;12.05;87.42;100665.16;4943435;28;20516;-72
2021/07/16 03:14:41;;;;;;;15.40;5.03;;;;;;;12.07;86.90;100653.06;4955094;28;20484;-72
2021/07/16 03:17:07;;;;;;;12.60;4.82;;;;;;;12.03;87.07;100657.28;4946110;28;20050;-72
2021/07/16 03:19:34;;;;;;;13.23;4.72;;;;;;;12.13;87.96;100668.34;4955368;28;20039;-72
2021/07/16 03:21:59;;;;;;;14.55;5.07;;;;;;;12.11;86.89;100658.84;4959019;28;20027;-72
2021/07/16 03:24:25;;;;;;;11.35;5.10;;;;;;;12.02;87.69;100661.03;4944887;28;20106;-72
2021/07/16 03:26:52;;;;;;;12.30;5.03;;;;;;;12.06;87.10;100658.72;4949462;28;20488;-72
2021/07/16 03:29:17;;;;;;;9.57;4.45;;;;;;;11.98;87.19;100659.81;4945630;28;20035;-72
2021/07/16 03:31:43;;;;;;;11.50;4.88;;;;;;;12.04;87.54;100658.13;4946257;28;20158;-72
2021/07/16 03:34:09;;;;;;;9.07;4.32;;;;;;;11.96;87.70;100653.81;4948595;28;20039;-72
2021/07/16 03:36:34;;;;;;;9.90;4.55;;;;;;;11.87;87.97;100645.22;4942990;28;20493;-72
2021/07/16 03:39:01;;;;;;;14.23;5.40;;;;;;;11.96;87.95;100643.00;4939972;28;20123;-72
2021/07/16 03:41:27;;;;;;;12.13;5.75;;;;;;;12.03;88.39;100640.25;4939808;28;20046;-72
2021/07/16 03:43:52;;;;;;;15.05;6.18;;;;;;;12.07;88.22;100650.34;4947449;28;20039;-72
2021/07/16 03:46:18;;;;;;;9.88;4.95;;;;;;;12.03;87.28;100643.78;4935636;28;20040;-72
2021/07/16 03:48:43;;;;;;;9.18;4.72;;;;;;;11.98;87.55;100657.94;4951231;28;20031;-73
2021/07/16 03:51:10;;;;;;;10.48;5.35;;;;;;;11.97;87.81;100658.16;4915408;29;20114;-73
2021/07/16 03:53:36;;;;;;;11.95;5.05;;;;;;;11.93;87.28;100656.97;4949870;28;20039;-73
2021/07/16 03:56:03;;;;;;;10.57;5.22;;;;;;;11.98;88.33;100660.66;4941952;29;20042;-72
2021/07/16 03:58:29;;;;;;;12.07;5.60;;;;;;;12.01;88.37;100656.69;4946046;28;20035;-72
2021/07/16 04:00:54;;;;;;;17.63;5.15;;;;;;;11.98;87.75;100649.84;4949930;28;20035;-72
2021/07/16 04:03:21;;;;;;;10.43;6.10;;;;;;;12.01;88.18;100653.97;4945129;28;20055;-72
2021/07/16 04:05:48;;;;;;;10.00;5.28;;;;;;;11.96;88.15;100653.81;4946713;28;20027;-72
2021/07/16 04:08:17;;;;;;;13.25;6.15;;;;;;;11.98;88.08;100666.03;4951663;28;20126;-72
2021/07/16 04:10:43;;;;;;;8.82;5.53;;;;;;;11.93;88.24;100665.06;4944543;28;20032;-72
2021/07/16 04:13:11;;;;;;;13.27;6.72;;;;;;;11.89;88.25;100655.78;4955168;28;20528;-72
2021/07/16 04:15:39;;;;;;;18.38;7.85;;;;;;;11.93;88.73;100657.81;4939446;28;20031;-72
2021/07/16 04:18:07;;;;;;;21.02;8.73;;;;;;;12.02;88.66;100661.03;4958414;28;20039;-72
2021/07/16 04:20:34;;;;;;;14.68;6.90;;;;;;;12.09;87.90;100664.44;4958430;28;20042;-72
2021/07/16 04:23:00;;;;;;;19.08;8.07;;;;;;;12.06;87.87;100658.72;4948836;28;20466;-72
2021/07/16 04:25:26;;;;;;;21.20;9.45;;;;;;;12.12;88.38;100653.19;4954157;28;20373;-72
2021/07/16 04:27:56;;;;;;;22.67;10.35;;;;;;;12.22;88.28;100663.44;4939718;28;20039;-72
2021/07/16 04:30:23;;;;;;;22.00;9.93;;;;;;;12.29;88.00;100656.06;4953139;28;20035;-71
2021/07/16 04:32:54;;;;;;;19.95;9.80;;;;;;;12.25;87.76;100656.75;4951550;28;20496;-72
2021/07/16 04:35:19;;;;;;;17.70;9.45;;;;;;;12.30;87.59;100667.69;4952286;28;20027;-72
2021/07/16 04:37:45;;;;;;;23.75;10.40;;;;;;;12.38;87.94;100666.53;4949154;28;20544;-72
2021/07/16 04:40:15;;;;;;;18.30;10.13;;;;;;;12.40;87.30;100661.72;4951085;28;20035;-72
2021/07/16 04:42:41;;;;;;;20.88;10.45;;;;;;;12.40;87.27;100667.13;4945150;28;20067;-72
2021/07/16 04:45:07;;;;;;;18.77;9.90;;;;;;;12.43;87.57;100670.22;4937884;28;20067;-74
2021/07/16 04:47:34;;;;;;;34.45;10.90;;;;;;;12.57;87.38;100678.91;4947398;28;20031;-78
2021/07/16 04:49:59;;;;;;;22.35;11.63;;;;;;;12.71;87.20;100674.13;4938119;28;20048;-77
2021/07/16 04:52:25;;;;;;;23.85;12.45;;;;;;;12.76;87.10;100672.59;4945860;28;20043;-77
2021/07/16 04:54:50;;;;;;;29.35;10.88;;;;;;;12.73;87.05;100671.16;4935014;28;20023;-77
2021/07/16 04:57:16;;;;;;;26.70;12.35;;;;;;;12.76;87.17;100678.81;4942529;28;20394;-78
2021/07/16 04:59:41;;;;;;;21.40;11.10;;;;;;;12.84;86.86;100672.25;4943640;28;20267;-78
2021/07/16 05:02:07;;;;;;;31.52;13.27;;;;;;;12.92;87.25;100671.88;4945239;28;20032;-78
2021/07/16 05:04:33;;;;;;;27.55;13.07;;;;;;;12.96;86.66;100670.34;4936709;28;20389;-78
2021/07/16 05:06:58;;;;;;;24.58;12.48;;;;;;;13.02;86.70;100679.41;4948666;28;20062;-77
2021/07/16 05:09:24;;;;;;;24.55;12.82;;;;;;;13.10;86.33;100676.34;4952942;28;20128;-78
2021/07/16 05:11:51;;;;;;;33.83;14.18;;;;;;;13.24;86.32;100678.78;4951289;28;20106;-78
2021/07/16 05:14:18;;;;;;;27.70;13.50;;;;;;;13.32;86.02;100675.75;4931528;29;20516;-77
2021/07/16 05:16:43;;;;;;;24.30;13.70;;;;;;;13.42;85.97;100677.84;4952933;28;20058;-78
2021/07/16 05:19:09;;;;;;;31.25;15.15;;;;;;;13.59;85.30;100686.06;4947744;28;20039;-78
2021/07/16 05:21:34;;;;;;;25.25;15.15;;;;;;;13.87;83.93;100681.75;4947934;28;20034;-77
2021/07/16 05:24:01;;;;;;;28.33;15.90;;;;;;;14.14;83.42;100690.13;4963207;28;20063;-77
2021/07/16 05:26:27;;;;;;;33.13;16.33;;;;;;;14.23;82.89;100692.44;4955502;28;20031;-77
2021/07/16 05:28:53;;;;;;;30.85;16.08;;;;;;;14.31;82.61;100692.03;4951851;28;20445;-78
2021/07/16 05:31:18;;;;;;;36.53;16.50;;;;;;;14.49;82.13;100688.25;4945857;28;20047;-77
2021/07/16 05:34:10;;;;;;;41.30;16.60;;;;;;;14.82;81.08;100686.63;4954369;28;20058;-78
2021/07/16 05:36:35;;;;;;;31.15;16.65;;;;;;;15.27;78.98;100694.91;4954014;28;20027;-77
2021/07/16 05:39:04;;;;;;;40.08;17.23;;;;;;;15.06;79.97;100697.31;4954070;28;20050;-78
2021/07/16 05:41:31;;;;;;;31.20;16.83;;;;;;;14.85;81.18;100702.41;4947040;28;20090;-75
2021/07/16 05:43:56;;;;;;;27.80;15.23;;;;;;;15.07;80.73;100702.47;4948255;28;20031;-75
2021/07/16 05:46:23;;;;;;;28.08;12.05;;;;;;;15.37;78.81;100708.59;4947523;28;20370;-76
2021/07/16 05:48:48;;;;;;;21.98;10.23;;;;;;;15.73;75.63;100706.34;4955482;28;20046;-74
2021/07/16 05:51:15;;;;;;;20.90;8.98;;;;;;;16.01;74.26;100707.22;4958905;28;20043;-77
2021/07/16 05:53:41;;;;;;;18.40;9.10;;;;;;;16.28;72.66;100711.03;4952974;28;20035;-75
2021/07/16 05:56:07;;;;;;;19.70;8.48;;;;;;;16.49;72.17;100718.28;4960347;28;20047;-76
2021/07/16 05:58:33;;;;;;;19.25;8.25;;;;;;;16.87;72.11;100718.34;4599153;28;10000536;-80
2021/07/16 06:00:58;;;;;;;18.10;8.77;;;;;;;17.10;70.86;100719.06;4949957;28;20023;-80
2021/07/16 06:03:24;;;;;;;14.30;7.22;;;;;;;17.58;68.31;100729.13;4952600;28;20146;-80
2021/07/16 06:05:49;;;;;;;15.25;7.38;;;;;;;17.90;68.21;100737.16;4946152;28;20094;-82
2021/07/16 06:08:15;;;;;;;14.93;7.10;;;;;;;17.99;67.49;100734.72;4934798;28;20046;-79
2021/07/16 06:10:40;;;;;;;12.07;6.55;;;;;;;18.07;66.78;100736.97;4928835;28;20053;-79
2021/07/16 06:13:06;;;;;;;12.15;6.90;;;;;;;17.94;66.25;100738.25;4946930;28;20192;-79
2021/07/16 06:15:32;;;;;;;14.77;8.05;;;;;;;17.38;68.11;100739.63;4942845;28;20038;-79
2021/07/16 06:17:58;;;;;;;16.95;7.78;;;;;;;17.20;69.24;100738.19;4950749;28;20248;-79
2021/07/16 06:20:23;;;;;;;19.38;7.43;;;;;;;16.79;70.23;100733.22;4946886;28;20485;-79
2021/07/16 06:22:48;;;;;;;14.70;6.75;;;;;;;16.57;71.35;100738.75;4942791;28;20032;-80
2021/07/16 06:25:17;;;;;;;17.02;6.65;;;;;;;16.46;71.83;100743.28;4951372;28;20031;-81
2021/07/16 06:27:43;;;;;;;13.50;6.30;;;;;;;16.60;72.25;100740.94;4945648;28;20067;-76
2021/07/16 06:30:11;;;;;;;16.58;5.93;;;;;;;16.53;71.57;100741.19;4943635;28;20086;-76
2021/07/16 06:32:37;;;;;;;18.75;6.28;;;;;;;17.08;69.47;100745.72;4938372;28;20083;-76
2021/07/16 06:35:04;;;;;;;22.83;6.60;;;;;;;17.48;68.73;100743.50;4949969;28;20927;-75
2021/07/16 06:37:29;;;;;;;17.90;6.55;;;;;;;17.64;68.09;100747.13;4936738;28;20122;-75
2021/07/16 06:39:57;;;;;;;16.05;5.43;;;;;;;17.89;65.98;100746.44;4937190;28;20671;-74
2021/07/16 06:42:24;;;;;;;14.23;5.22;;;;;;;18.23;65.14;100740.56;4940228;28;20051;-76
2021/07/16 06:44:50;;;;;;;15.05;6.22;;;;;;;18.85;62.55;100750.69;4936404;28;20038;-78
2021/07/16 06:47:15;;;;;;;18.40;6.55;;;;;;;19.15;61.38;100740.88;4949579;28;20034;-79
2021/07/16 06:49:41;;;;;;;12.20;5.18;;;;;;;18.95;62.61;100745.25;4934663;28;20633;-74
2021/07/16 06:52:07;;;;;;;14.23;4.80;;;;;;;18.81;63.18;100742.22;4952172;28;20551;-74
2021/07/16 06:54:33;;;;;;;10.13;4.40;;;;;;;18.43;64.35;100742.47;4948537;28;20087;-73
2021/07/16 06:56:58;;;;;;;13.05;4.43;;;;;;;18.29;65.61;100746.81;4941102;28;20481;-74
2021/07/16 06:59:24;;;;;;;12.15;4.88;;;;;;;18.15;66.46;100735.63;4939124;28;20134;-74
2021/07/16 07:01:50;;;;;;;13.35;4.60;;;;;;;18.17;67.20;100740.78;4935793;28;20464;-74
2021/07/16 07:04:16;;;;;;;16.50;4.82;;;;;;;17.97;67.79;100747.78;4944703;28;20030;-74
2021/07/16 07:06:42;;;;;;;11.48;4.60;;;;;;;17.98;68.42;100733.09;4943110;28;20031;-73
2021/07/16 07:09:08;;;;;;;12.68;4.53;;;;;;;18.05;67.69;100744.59;4945327;28;20047;-73
2021/07/16 07:11:35;;;;;;;8.18;3.90;;;;;;;18.12;67.88;100738.88;4942118;28;20078;-72
2021/07/16 07:14:00;;;;;;;11.75;4.65;;;;;;;18.15;67.83;100741.06;4940941;28;20086;-73
2021/07/16 07:16:26;;;;;;;19.13;4.72;;;;;;;18.15;68.56;100749.25;4946009;28;20047;-74
2021/07/16 07:18:51;;;;;;;10.80;4.10;;;;;;;18.21;68.79;100748.19;4953022;28;20066;-71
2021/07/16 07:21:17;;;;;;;14.77;4.40;;;;;;;18.27;68.12;100744.38;4937399;28;20512;-71
2021/07/16 07:23:42;;;;;;;9.10;4.18;;;;;;;18.10;68.78;100751.97;4949733;28;20072;-71
2021/07/16 07:26:09;;;;;;;15.02;5.57;;;;;;;18.29;68.71;100755.00;4937598;28;20786;-71
2021/07/16 07:28:34;;;;;;;13.60;4.30;;;;;;;18.24;69.15;100753.09;4947540;28;20031;-71
2021/07/16 07:31:00;;;;;;;10.88;4.00;;;;;;;18.41;68.73;100750.09;4946429;28;20485;-71
2021/07/16 07:33:26;;;;;;;10.65;4.57;;;;;;;18.58;68.11;100744.41;4947037;28;20027;-71
2021/07/16 07:35:51;;;;;;;10.13;4.55;;;;;;;18.62;68.21;100744.69;4943146;28;20027;-71
2021/07/16 07:38:17;;;;;;;10.80;4.88;;;;;;;18.80;67.90;100745.25;4947666;28;20686;-71
2021/07/16 07:40:43;;;;;;;15.45;4.30;;;;;;;18.92;66.45;100750.41;4939364;28;20385;-71
2021/07/16 07:43:08;;;;;;;14.23;4.63;;;;;;;18.95;67.67;100758.06;4948651;28;20405;-72
2021/07/16 07:45:34;;;;;;;15.32;4.30;;;;;;;19.04;67.51;100759.16;4941812;28;20063;-71
2021/07/16 07:48:00;;;;;;;9.40;4.47;;;;;;;19.09;66.69;100761.09;4950060;28;20043;-71
2021/07/16 07:50:26;;;;;;;19.63;3.60;;;;;;;19.25;66.78;100759.97;4948017;28;20051;-72
2021/07/16 07:52:53;;;;;;;11.52;4.07;;;;;;;19.33;65.90;100749.56;4952244;28;20035;-71
2021/07/16 07:55:21;;;;;;;10.60;4.07;;;;;;;19.41;66.18;100749.81;4946196;28;20066;-70
2021/07/16 07:57:47;;;;;;;14.88;4.15;;;;;;;19.46;65.74;100754.44;4941001;28;20027;-71
2021/07/16 08:00:17;;;;;;;12.05;4.20;;;;;;;19.55;66.26;100762.91;4941626;28;20038;-71
2021/07/16 08:02:43;;;;;;;17.65;4.25;;;;;;;19.79;65.88;100754.06;4952464;28;20110;-71
2021/07/16 08:05:10;;;;;;;13.13;3.67;;;;;;;19.82;65.00;100758.97;4950863;28;20517;-72
2021/07/16 08:07:36;;;;;;;9.40;4.00;;;;;;;19.85;65.47;100755.69;4942060;28;20054;-71
2021/07/16 08:10:08;;;;;;;10.10;3.83;;;;;;;19.87;65.20;100759.75;4943109;29;20086;-71
2021/07/16 08:12:34;;;;;;;14.77;5.20;;;;;;;20.07;64.81;100769.00;4940232;28;20082;-72
2021/07/16 08:14:59;;;;;;;8.88;3.40;;;;;;;20.06;64.42;100766.56;4937311;28;20138;-71
2021/07/16 08:17:25;;;;;;;8.63;3.65;;;;;;;20.07;64.92;100757.25;4956003;28;20053;-71
2021/07/16 08:19:51;;;;;;;11.23;3.38;;;;;;;20.24;64.60;100759.59;4943913;28;20121;-71
2021/07/16 08:22:17;;;;;;;11.20;3.55;;;;;;;20.28;64.98;100766.13;4944444;28;20134;-72
2021/07/16 08:24:43;;;;;;;14.23;3.78;;;;;;;20.30;64.38;100769.41;4942962;28;20035;-71
2021/07/16 08:27:09;;;;;;;10.90;3.83;;;;;;;20.27;63.92;100767.25;4948753;28;20027;-71
2021/07/16 08:29:34;;;;;;;9.52;3.45;;;;;;;20.40;63.79;100774.00;4941780;28;20038;-71
2021/07/16 08:32:00;;;;;;;15.32;3.58;;;;;;;20.44;63.42;100770.44;4606769;28;9999957;-71
2021/07/16 08:34:26;;;;;;;10.63;3.60;;;;;;;20.57;63.63;100766.22;4939945;28;20031;-71
2021/07/16 08:36:52;;;;;;;9.88;3.58;;;;;;;20.63;62.54;100767.81;4958841;28;20043;-71
2021/07/16 08:39:17;;;;;;;8.55;3.45;;;;;;;20.73;63.36;100763.38;4949993;28;20055;-72
2021/07/16 08:41:43;;;;;;;8.52;3.22;;;;;;;20.80;63.55;100771.31;4937041;28;20032;-71
2021/07/16 08:44:09;;;;;;;13.15;3.35;;;;;;;20.93;63.06;100762.44;4943611;28;20032;-72
2021/07/16 08:46:35;;;;;;;7.13;2.92;;;;;;;21.06;60.60;100758.19;4949937;28;20436;-71
2021/07/16 08:49:01;;;;;;;9.00;3.20;;;;;;;20.99;61.24;100765.91;4951324;28;20042;-71
2021/07/16 08:51:27;;;;;;;10.55;3.08;;;;;;;21.04;60.64;100765.88;4943784;28;20031;-71
2021/07/16 08:53:55;;;;;;;9.43;3.17;;;;;;;21.18;60.48;100766.03;4950908;28;20114;-71
2021/07/16 08:56:23;;;;;;;8.95;3.13;;;;;;;21.21;61.01;100773.66;4925232;29;20175;-72
2021/07/16 08:58:49;;;;;;;6.80;2.80;;;;;;;21.24;60.84;100770.34;4958850;28;20035;-71
2021/07/16 09:01:15;;;;;;;17.30;2.65;;;;;;;21.23;60.09;100776.94;4955722;28;20565;-72
2021/07/16 09:04:01;;;;;;;10.57;2.85;;;;;;;21.20;59.87;100770.13;4943392;28;20524;-72
2021/07/16 09:06:41;;;;;;;7.40;2.80;;;;;;;21.24;59.60;100783.25;4949755;28;20114;-71
2021/07/16 09:09:07;;;;;;;12.93;2.38;;;;;;;21.29;60.28;100777.72;4949094;28;20396;-71
2021/07/16 09:11:41;;;;;;;8.73;2.35;;;;;;;21.38;59.99;100783.34;4960402;28;20035;-71
2021/07/16 09:14:07;;;;;;;;;;;;;;;21.33;59.51;100784.25;4944545;28;20485;-72
2021/07/16 09:16:34;;;;;;;6.90;2.60;;;;;;;21.35;59.74;100782.03;4953829;28;19922;-71
2021/07/16 09:19:00;;;;;;;7.13;2.78;;;;;;;21.66;60.18;100791.84;4949519;28;20058;-71
2021/07/16 09:21:26;;;;;;;8.85;2.53;;;;;;;21.82;59.53;100781.53;4950648;28;20496;-72
2021/07/16 09:23:52;;;;;;;11.55;2.58;;;;;;;21.64;59.71;100782.00;4951502;28;20042;-71
2021/07/16 09:26:27;;;;;;;9.23;2.50;;;;;;;21.78;58.74;100779.38;4946421;28;20051;-71
2021/07/16 09:28:56;;;;;;;8.75;2.90;;;;;;;21.94;58.66;100782.72;4938510;29;20476;-71
2021/07/16 09:31:24;;;;;;;4.65;2.10;;;;;;;22.04;58.14;100779.06;4944856;28;20034;-71
2021/07/16 09:33:56;;;;;;;10.30;2.60;;;;;;;21.97;58.19;100780.50;4940786;28;20039;-71
2021/07/16 09:36:31;;;;;;;5.13;2.03;;;;;;;21.98;58.17;100785.72;4947142;28;20040;-71
2021/07/16 09:39:04;;;;;;;9.50;2.30;;;;;;;22.05;57.94;100780.69;4955256;28;20110;-71
2021/07/16 09:41:30;;;;;;;;;;;;;;;21.94;58.25;100779.19;4928554;28;20050;-71
2021/07/16 09:44:03;;;;;;;6.80;2.05;;;;;;;22.14;58.17;100780.03;4950616;28;19918;-71
2021/07/16 09:46:28;;;;;;;4.90;2.20;;;;;;;22.13;56.96;100787.44;4961249;28;20035;-71
2021/07/16 09:49:15;;;;;;;8.52;2.30;;;;;;;22.17;56.92;100783.00;4963419;28;20038;-71
2021/07/16 09:51:42;;;;;;;5.30;2.45;;;;;;;22.23;57.77;100791.97;4955456;28;20046;-71
2021/07/16 09:54:12;;;;;;;7.30;2.47;;;;;;;22.43;57.36;100795.53;4947721;28;20043;-71
2021/07/16 09:56:38;;;;;;;7.45;2.20;;;;;;;22.40;57.21;100793.38;4958833;28;20090;-72
2021/07/16 09:59:14;;;;;;;8.80;2.10;;;;;;;22.45;56.91;100793.31;4955216;28;20035;-72
2021/07/16 10:01:42;;;;;;;6.47;2.13;;;;;;;22.55;57.04;100800.59;4949848;28;20027;-71
2021/07/16 10:04:18;;;;;;;9.30;2.63;;;;;;;22.46;57.09;100797.72;4952082;28;20114;-71
2021/07/16 10:06:47;;;;;;;4.72;2.03;;;;;;;22.42;56.94;100791.97;4946484;28;20051;-71
2021/07/16 10:09:13;;;;;;;7.75;2.22;;;;;;;22.52;57.56;100789.13;4945747;28;20078;-72
2021/07/16 10:11:39;;;;;;;10.65;2.47;;;;;;;22.55;56.17;100795.13;4951741;28;20434;-72
2021/07/16 10:14:05;;;;;;;5.80;2.38;;;;;;;22.66;56.52;100802.88;4947057;28;20039;-72
2021/07/16 10:16:30;;;;;;;6.63;2.03;;;;;;;22.62;56.39;100801.84;4941170;28;20103;-72
2021/07/16 10:18:57;;;;;;;7.63;2.22;;;;;;;22.81;57.55;100799.09;4936668;29;20094;-73
2021/07/16 10:21:23;;;;;;;10.27;2.67;;;;;;;22.78;56.17;100796.13;4919734;29;20421;-79
2021/07/16 10:23:53;;;;;;;9.07;2.50;;;;;;;22.85;56.12;100806.72;4937326;29;20032;-74
2021/07/16 10:26:24;;;;;;;6.40;2.28;;;;;;;22.91;56.36;100806.34;4936584;29;20039;-74
2021/07/16 10:28:50;;;;;;;7.82;2.42;;;;;;;23.05;55.27;100803.63;4931120;29;20035;-74
2021/07/16 10:31:37;;;;;;;7.28;2.58;;;;;;;23.17;55.09;100805.09;4914386;29;20043;-74
2021/07/16 10:34:19;;;;;;;11.48;2.88;;;;;;;23.00;55.30;100809.22;4930202;29;20137;-74
2021/07/16 10:36:49;;;;;;;9.55;2.78;;;;;;;23.12;55.19;100800.53;4925632;29;20674;-74
2021/07/16 10:39:37;;;;;;;10.23;2.97;;;;;;;23.10;56.26;100800.81;4932186;29;20027;-74
2021/07/16 10:42:25;;;;;;;5.22;2.47;;;;;;;23.30;55.28;100789.78;4927868;29;20035;-74
2021/07/16 10:44:52;;;;;;;9.95;2.78;;;;;;;23.46;55.73;100804.88;4938079;29;20118;-74
2021/07/16 10:47:51;;;;;;;7.00;2.63;;;;;;;23.37;54.04;100807.50;4929559;29;20032;-74
2021/07/16 10:50:28;;;;;;;6.35;2.80;;;;;;;23.36;53.65;100796.81;4919732;29;20035;-73
2021/07/16 10:52:54;;;;;;;5.82;2.80;;;;;;;23.42;54.41;100803.03;4930601;29;20110;-74
2021/07/16 10:55:40;;;;;;;5.85;2.58;;;;;;;23.55;54.14;100802.22;4928450;29;20595;-74
2021/07/16 10:58:40;;;;;;;10.77;2.78;;;;;;;23.57;53.91;100808.22;4926381;29;20122;-74
2021/07/16 11:01:07;;;;;;;7.05;2.90;;;;;;;23.94;53.80;100811.91;4935783;29;20541;-74
2021/07/16 11:03:50;;;;;;;5.18;1.98;;;;;;;23.85;53.04;100804.69;4651387;29;10000560;-74
2021/07/16 11:06:17;;;;;;;6.05;2.13;;;;;;;23.75;52.00;100803.75;4916864;29;20781;-74
2021/07/16 11:08:42;;;;;;;7.90;2.00;;;;;;;23.77;52.38;100809.78;4926045;29;20032;-74
2021/07/16 11:11:16;;;;;;;7.47;2.30;;;;;;;23.83;51.56;100803.03;4928549;29;20303;-74
2021/07/16 11:13:54;;;;;;;11.63;2.60;;;;;;;23.75;51.82;100813.94;4931152;29;20067;-74
2021/07/16 11:16:29;;;;;;;9.05;2.22;;;;;;;23.88;53.08;100810.38;4932462;29;20035;-74
2021/07/16 11:19:12;;;;;;;7.80;2.67;;;;;;;23.85;52.68;100810.97;4938547;28;20039;-73
2021/07/16 11:21:42;;;;;;;7.82;2.63;;;;;;;23.95;52.63;100808.03;4953105;28;20097;-74